sensor_id;sensor_type;location;lat;lon;timestamp;pressure;altitude;pressure_sealevel;temperature;humidity
34197;BME280;36594;45.192;5.722;2023-01-29T00:01:07;99911.56;;;20.31;31.11
34197;BME280;36594;45.192;5.722;2023-01-29T00:03:55;99916.50;;;20.31;31.12
34197;BME280;36594;45.192;5.722;2023-01-29T00:06:44;99907.36;;;20.28;31.16
34197;BME280;36594;45.192;5.722;2023-01-29T00:09:32;99906.22;;;20.27;31.17
34197;BME280;36594;45.192;5.722;2023-01-29T00:12:21;99914.92;;;20.26;31.21
34197;BME280;36594;45.192;5.722;2023-01-29T00:15:09;99914.84;;;20.30;31.13
34197;BME280;36594;45.192;5.722;2023-01-29T00:17:58;99904.96;;;20.29;31.10
34197;BME280;36594;45.192;5.722;2023-01-29T00:20:47;99906.84;;;20.29;31.13
34197;BME280;36594;45.192;5.722;2023-01-29T00:23:35;99911.78;;;20.29;31.11
34197;BME280;36594;45.192;5.722;2023-01-29T00:26:24;99913.66;;;20.29;31.13
34197;BME280;36594;45.192;5.722;2023-01-29T00:29:13;99905.18;;;20.28;31.14
34197;BME280;36594;45.192;5.722;2023-01-29T00:32:02;99907.69;;;20.29;31.12
34197;BME280;36594;45.192;5.722;2023-01-29T00:34:51;99901.72;;;20.30;31.11
34197;BME280;36594;45.192;5.722;2023-01-29T00:37:39;99904.63;;;20.28;31.14
34197;BME280;36594;45.192;5.722;2023-01-29T00:40:27;99901.72;;;20.30;31.12
34197;BME280;36594;45.192;5.722;2023-01-29T00:43:17;99898.14;;;20.29;31.12
34197;BME280;36594;45.192;5.722;2023-01-29T00:46:24;99897.52;;;20.27;31.15
34197;BME280;36594;45.192;5.722;2023-01-29T00:49:12;99896.67;;;20.27;31.13
34197;BME280;36594;45.192;5.722;2023-01-29T00:52:00;99897.30;;;20.29;31.13
34197;BME280;36594;45.192;5.722;2023-01-29T00:55:08;99904.23;;;20.25;31.15
34197;BME280;36594;45.192;5.722;2023-01-29T00:57:57;99900.98;;;20.25;31.14
34197;BME280;36594;45.192;5.722;2023-01-29T01:00:45;99902.53;;;20.24;31.12
34197;BME280;36594;45.192;5.722;2023-01-29T01:03:35;99910.72;;;20.24;31.17
34197;BME280;36594;45.192;5.722;2023-01-29T01:06:25;99914.62;;;20.25;31.15
34197;BME280;36594;45.192;5.722;2023-01-29T01:09:13;99918.16;;;20.26;31.15
34197;BME280;36594;45.192;5.722;2023-01-29T01:12:21;99916.91;;;20.28;31.13
34197;BME280;36594;45.192;5.722;2023-01-29T01:15:10;99906.44;;;20.25;31.11
34197;BME280;36594;45.192;5.722;2023-01-29T01:18:01;99921.44;;;20.25;31.13
34197;BME280;36594;45.192;5.722;2023-01-29T01:20:55;99924.80;;;20.27;31.12
34197;BME280;36594;45.192;5.722;2023-01-29T01:23:44;99923.43;;;20.27;31.06
34197;BME280;36594;45.192;5.722;2023-01-29T01:26:33;99917.86;;;20.25;31.17
34197;BME280;36594;45.192;5.722;2023-01-29T01:29:21;99915.44;;;20.26;31.13
34197;BME280;36594;45.192;5.722;2023-01-29T01:32:10;99926.67;;;20.27;31.10
34197;BME280;36594;45.192;5.722;2023-01-29T01:34:59;99927.71;;;20.26;31.10
34197;BME280;36594;45.192;5.722;2023-01-29T01:37:47;99935.38;;;20.26;31.11
34197;BME280;36594;45.192;5.722;2023-01-29T01:40:35;99926.16;;;20.27;31.10
34197;BME280;36594;45.192;5.722;2023-01-29T01:43:24;99926.67;;;20.27;31.05
34197;BME280;36594;45.192;5.722;2023-01-29T01:46:12;99934.13;;;20.29;31.07
34197;BME280;36594;45.192;5.722;2023-01-29T01:49:04;99935.48;;;20.29;31.07
34197;BME280;36594;45.192;5.722;2023-01-29T01:51:52;99928.89;;;20.27;31.03
34197;BME280;36594;45.192;5.722;2023-01-29T01:54:42;99929.73;;;20.28;31.05
34197;BME280;36594;45.192;5.722;2023-01-29T01:57:32;99932.98;;;20.27;31.03
34197;BME280;36594;45.192;5.722;2023-01-29T02:00:21;99932.45;;;20.28;31.05
34197;BME280;36594;45.192;5.722;2023-01-29T02:03:11;99936.11;;;20.24;31.07
34197;BME280;36594;45.192;5.722;2023-01-29T02:06:18;99929.30;;;20.24;31.08
34197;BME280;36594;45.192;5.722;2023-01-29T02:09:29;99930.66;;;20.24;31.12
34197;BME280;36594;45.192;5.722;2023-01-29T02:12:22;99932.24;;;20.23;31.09
34197;BME280;36594;45.192;5.722;2023-01-29T02:15:12;99932.24;;;20.23;31.12
34197;BME280;36594;45.192;5.722;2023-01-29T02:18:01;99931.17;;;20.24;31.05
34197;BME280;36594;45.192;5.722;2023-01-29T02:27:14;99940.09;;;20.22;31.08
34197;BME280;36594;45.192;5.722;2023-01-29T02:30:08;99947.28;;;20.19;31.10
34197;BME280;36594;45.192;5.722;2023-01-29T02:36:19;99957.90;;;20.18;31.18
34197;BME280;36594;45.192;5.722;2023-01-29T02:42:27;99964.39;;;20.17;31.16
34197;BME280;36594;45.192;5.722;2023-01-29T02:45:28;99968.19;;;20.16;31.19
34197;BME280;36594;45.192;5.722;2023-01-29T02:48:23;99967.73;;;20.12;31.22
34197;BME280;36594;45.192;5.722;2023-01-29T02:51:10;99971.84;;;20.19;31.16
34197;BME280;36594;45.192;5.722;2023-01-29T02:54:02;99971.84;;;20.19;31.13
34197;BME280;36594;45.192;5.722;2023-01-29T02:57:04;99973.02;;;20.20;31.10
34197;BME280;36594;45.192;5.722;2023-01-29T02:59:51;99970.80;;;20.20;31.11
34197;BME280;36594;45.192;5.722;2023-01-29T03:02:52;99972.68;;;20.19;31.10
34197;BME280;36594;45.192;5.722;2023-01-29T03:05:49;99973.20;;;20.19;31.12
34197;BME280;36594;45.192;5.722;2023-01-29T03:09:02;99985.39;;;20.16;31.13
34197;BME280;36594;45.192;5.722;2023-01-29T03:11:53;99982.67;;;20.16;31.13
34197;BME280;36594;45.192;5.722;2023-01-29T03:14:42;99988.64;;;20.16;31.14
34197;BME280;36594;45.192;5.722;2023-01-29T03:18:10;99996.81;;;20.16;31.13
34197;BME280;36594;45.192;5.722;2023-01-29T03:21:02;100000.69;;;20.17;31.10
34197;BME280;36594;45.192;5.722;2023-01-29T03:23:54;99999.22;;;20.15;31.17
34197;BME280;36594;45.192;5.722;2023-01-29T03:27:05;99999.73;;;20.14;31.15
34197;BME280;36594;45.192;5.722;2023-01-29T03:30:14;100004.48;;;20.16;31.18
34197;BME280;36594;45.192;5.722;2023-01-29T03:33:52;100003.01;;;20.14;31.12
34197;BME280;36594;45.192;5.722;2023-01-29T03:36:47;100005.41;;;20.13;31.20
34197;BME280;36594;45.192;5.722;2023-01-29T03:39:35;99998.47;;;20.10;31.19
34197;BME280;36594;45.192;5.722;2023-01-29T03:45:42;99997.00;;;20.14;31.14
34197;BME280;36594;45.192;5.722;2023-01-29T03:48:35;99999.55;;;20.16;31.13
34197;BME280;36594;45.192;5.722;2023-01-29T03:51:40;100009.39;;;20.17;31.11
34197;BME280;36594;45.192;5.722;2023-01-29T03:54:30;100013.19;;;20.16;31.11
34197;BME280;36594;45.192;5.722;2023-01-29T03:57:22;100013.70;;;20.15;31.12
34197;BME280;36594;45.192;5.722;2023-01-29T04:00:16;100020.19;;;20.14;31.13
34197;BME280;36594;45.192;5.722;2023-01-29T04:06:17;100023.25;;;20.15;31.12
34197;BME280;36594;45.192;5.722;2023-01-29T04:09:12;100031.76;;;20.16;31.07
34197;BME280;36594;45.192;5.722;2023-01-29T04:12:08;100033.31;;;20.15;31.12
34197;BME280;36594;45.192;5.722;2023-01-29T04:15:00;100037.22;;;20.16;31.11
34197;BME280;36594;45.192;5.722;2023-01-29T04:17:51;100039.21;;;20.18;31.07
34197;BME280;36594;45.192;5.722;2023-01-29T04:20:41;100036.48;;;20.18;31.01
34197;BME280;36594;45.192;5.722;2023-01-29T04:23:30;100035.52;;;20.15;31.05
34197;BME280;36594;45.192;5.722;2023-01-29T04:42:17;100029.32;;;20.11;31.12
34197;BME280;36594;45.192;5.722;2023-01-29T04:51:03;100025.56;;;20.12;31.10
34197;BME280;36594;45.192;5.722;2023-01-29T04:56:56;100014.20;;;20.08;31.08
34197;BME280;36594;45.192;5.722;2023-01-29T05:00:09;100022.83;;;20.12;31.08
34197;BME280;36594;45.192;5.722;2023-01-29T05:02:42;100019.89;;;20.13;31.03
34197;BME280;36594;45.192;5.722;2023-01-29T05:05:32;100023.98;;;20.13;31.04
34197;BME280;36594;45.192;5.722;2023-01-29T05:08:23;100026.70;;;20.13;31.05
34197;BME280;36594;45.192;5.722;2023-01-29T05:11:13;100026.19;;;20.14;31.04
34197;BME280;36594;45.192;5.722;2023-01-29T05:14:03;100026.82;;;20.16;31.00
34197;BME280;36594;45.192;5.722;2023-01-29T05:16:55;100024.09;;;20.16;31.00
34197;BME280;36594;45.192;5.722;2023-01-29T05:19:45;100026.30;;;20.16;31.00
34197;BME280;36594;45.192;5.722;2023-01-29T05:22:36;100029.22;;;20.15;30.99
34197;BME280;36594;45.192;5.722;2023-01-29T05:25:28;100033.42;;;20.17;30.96
34197;BME280;36594;45.192;5.722;2023-01-29T05:28:17;100027.13;;;20.17;30.97
34197;BME280;36594;45.192;5.722;2023-01-29T05:31:05;100037.84;;;20.18;30.96
34197;BME280;36594;45.192;5.722;2023-01-29T05:33:54;100030.91;;;20.16;30.95
34197;BME280;36594;45.192;5.722;2023-01-29T05:36:43;100033.13;;;20.16;30.94
34197;BME280;36594;45.192;5.722;2023-01-29T05:39:32;100034.48;;;20.16;30.93
34197;BME280;36594;45.192;5.722;2023-01-29T05:42:21;100036.04;;;20.15;30.98
34197;BME280;36594;45.192;5.722;2023-01-29T05:45:10;100039.50;;;20.13;30.97
34197;BME280;36594;45.192;5.722;2023-01-29T05:47:59;100044.22;;;20.15;30.97
34197;BME280;36594;45.192;5.722;2023-01-29T05:50:48;100048.83;;;20.14;30.96
34197;BME280;36594;45.192;5.722;2023-01-29T05:53:36;100051.89;;;20.15;30.95
34197;BME280;36594;45.192;5.722;2023-01-29T05:56:25;100053.58;;;20.16;30.93
34197;BME280;36594;45.192;5.722;2023-01-29T05:59:15;100058.38;;;20.14;30.90
34197;BME280;36594;45.192;5.722;2023-01-29T06:02:04;100059.55;;;20.16;30.94
34197;BME280;36594;45.192;5.722;2023-01-29T06:04:52;100066.38;;;20.16;30.92
34197;BME280;36594;45.192;5.722;2023-01-29T06:07:41;100072.56;;;20.14;30.90
34197;BME280;36594;45.192;5.722;2023-01-29T06:10:31;100075.92;;;20.16;30.92
34197;BME280;36594;45.192;5.722;2023-01-29T06:13:19;100076.09;;;20.14;30.92
34197;BME280;36594;45.192;5.722;2023-01-29T06:16:08;100075.59;;;20.15;30.94
34197;BME280;36594;45.192;5.722;2023-01-29T06:18:57;100079.89;;;20.13;30.94
34197;BME280;36594;45.192;5.722;2023-01-29T06:21:46;100081.25;;;20.13;30.94
34197;BME280;36594;45.192;5.722;2023-01-29T06:24:34;100082.92;;;20.14;30.89
34197;BME280;36594;45.192;5.722;2023-01-29T06:27:22;100089.73;;;20.14;30.89
34197;BME280;36594;45.192;5.722;2023-01-29T06:30:12;100091.10;;;20.14;30.90
34197;BME280;36594;45.192;5.722;2023-01-29T06:33:00;100091.10;;;20.14;30.89
34197;BME280;36594;45.192;5.722;2023-01-29T06:35:48;100090.80;;;20.13;30.89
34197;BME280;36594;45.192;5.722;2023-01-29T06:38:37;100096.55;;;20.14;30.90
34197;BME280;36594;45.192;5.722;2023-01-29T06:41:25;100096.47;;;20.12;30.91
34197;BME280;36594;45.192;5.722;2023-01-29T06:44:14;100103.38;;;20.14;30.89
34197;BME280;36594;45.192;5.722;2023-01-29T06:47:03;100110.20;;;20.14;30.89
34197;BME280;36594;45.192;5.722;2023-01-29T06:49:51;100116.50;;;20.15;30.86
34197;BME280;36594;45.192;5.722;2023-01-29T06:52:39;100120.47;;;20.12;30.89
34197;BME280;36594;45.192;5.722;2023-01-29T06:55:27;100136.44;;;20.15;30.86
34197;BME280;36594;45.192;5.722;2023-01-29T06:58:16;100140.11;;;20.12;30.86
34197;BME280;36594;45.192;5.722;2023-01-29T07:01:06;100148.81;;;20.11;30.87
34197;BME280;36594;45.192;5.722;2023-01-29T07:03:55;100157.62;;;20.13;30.89
34197;BME280;36594;45.192;5.722;2023-01-29T07:06:43;100160.98;;;20.15;30.85
34197;BME280;36594;45.192;5.722;2023-01-29T07:09:32;100171.56;;;20.14;30.84
34197;BME280;36594;45.192;5.722;2023-01-29T07:12:20;100175.35;;;20.13;30.87
34197;BME280;36594;45.192;5.722;2023-01-29T07:15:09;100173.66;;;20.12;30.85
34197;BME280;36594;45.192;5.722;2023-01-29T07:18:02;100176.38;;;20.12;30.83
34197;BME280;36594;45.192;5.722;2023-01-29T07:20:52;100176.59;;;20.11;30.85
34197;BME280;36594;45.192;5.722;2023-01-29T07:23:42;100181.41;;;20.09;30.89
34197;BME280;36594;45.192;5.722;2023-01-29T07:26:30;100182.14;;;20.07;30.91
34197;BME280;36594;45.192;5.722;2023-01-29T07:29:19;100183.30;;;20.08;30.91
34197;BME280;36594;45.192;5.722;2023-01-29T07:32:07;100181.20;;;20.10;30.90
34197;BME280;36594;45.192;5.722;2023-01-29T07:34:55;100183.92;;;20.10;30.85
34197;BME280;36594;45.192;5.722;2023-01-29T07:37:44;100186.47;;;20.12;30.87
34197;BME280;36594;45.192;5.722;2023-01-29T07:40:34;100186.35;;;20.09;30.85
34197;BME280;36594;45.192;5.722;2023-01-29T07:43:22;100190.45;;;20.09;30.86
34197;BME280;36594;45.192;5.722;2023-01-29T07:46:12;100194.33;;;20.11;30.82
34197;BME280;36594;45.192;5.722;2023-01-29T07:49:00;100195.35;;;20.10;30.88
34197;BME280;36594;45.192;5.722;2023-01-29T07:51:49;100194.54;;;20.09;30.85
34197;BME280;36594;45.192;5.722;2023-01-29T07:54:37;100203.02;;;20.10;30.87
34197;BME280;36594;45.192;5.722;2023-01-29T07:57:25;100198.62;;;20.09;30.83
34197;BME280;36594;45.192;5.722;2023-01-29T08:00:15;100207.95;;;20.11;30.85
34197;BME280;36594;45.192;5.722;2023-01-29T08:03:15;100208.47;;;20.10;30.86
34197;BME280;36594;45.192;5.722;2023-01-29T08:06:04;100213.41;;;20.11;30.83
34197;BME280;36594;45.192;5.722;2023-01-29T08:08:53;100221.69;;;20.07;30.83
34197;BME280;36594;45.192;5.722;2023-01-29T08:11:43;100234.72;;;20.11;30.85
34197;BME280;36594;45.192;5.722;2023-01-29T08:14:31;100243.08;;;20.10;30.82
34197;BME280;36594;45.192;5.722;2023-01-29T08:17:19;100249.39;;;20.10;30.81
34197;BME280;36594;45.192;5.722;2023-01-29T08:20:09;100253.81;;;20.11;30.79
34197;BME280;36594;45.192;5.722;2023-01-29T08:23:03;100254.12;;;20.12;30.78
34197;BME280;36594;45.192;5.722;2023-01-29T08:25:52;100256.20;;;20.10;30.81
34197;BME280;36594;45.192;5.722;2023-01-29T08:28:40;100258.08;;;20.10;30.82
34197;BME280;36594;45.192;5.722;2023-01-29T08:31:29;100250.96;;;20.09;30.81
34197;BME280;36594;45.192;5.722;2023-01-29T08:34:17;100255.35;;;20.10;30.78
34197;BME280;36594;45.192;5.722;2023-01-29T08:37:05;100255.91;;;20.09;30.79
34197;BME280;36594;45.192;5.722;2023-01-29T08:39:53;100250.96;;;20.09;30.81
34197;BME280;36594;45.192;5.722;2023-01-29T08:42:42;100251.98;;;20.08;30.87
34197;BME280;36594;45.192;5.722;2023-01-29T08:45:32;100248.02;;;20.10;30.79
34197;BME280;36594;45.192;5.722;2023-01-29T08:48:22;100237.84;;;20.08;30.79
34197;BME280;36594;45.192;5.722;2023-01-29T08:51:12;100240.23;;;20.07;30.81
34197;BME280;36594;45.192;5.722;2023-01-29T08:54:00;100239.93;;;20.06;30.82
34197;BME280;36594;45.192;5.722;2023-01-29T08:56:49;100240.56;;;20.08;30.81
34197;BME280;36594;45.192;5.722;2023-01-29T08:59:38;100233.02;;;20.10;30.81
34197;BME280;36594;45.192;5.722;2023-01-29T09:02:27;100229.99;;;20.09;30.81
34197;BME280;36594;45.192;5.722;2023-01-29T09:05:15;100230.17;;;20.08;30.80
34197;BME280;36594;45.192;5.722;2023-01-29T09:08:05;100218.53;;;20.10;30.77
34197;BME280;36594;45.192;5.722;2023-01-29T09:10:54;100213.63;;;20.09;30.77
34197;BME280;36594;45.192;5.722;2023-01-29T09:13:44;100204.38;;;20.10;30.79
34197;BME280;36594;45.192;5.722;2023-01-29T09:16:32;100200.69;;;20.07;30.80
34197;BME280;36594;45.192;5.722;2023-01-29T09:19:21;100203.23;;;20.09;30.79
34197;BME280;36594;45.192;5.722;2023-01-29T09:22:09;100210.05;;;20.09;30.81
34197;BME280;36594;45.192;5.722;2023-01-29T09:24:57;100204.38;;;20.10;30.75
34197;BME280;36594;45.192;5.722;2023-01-29T09:27:46;100207.84;;;20.08;30.77
34197;BME280;36594;45.192;5.722;2023-01-29T09:30:34;100210.35;;;20.10;30.77
34197;BME280;36594;45.192;5.722;2023-01-29T09:33:24;100218.75;;;20.08;30.79
34197;BME280;36594;45.192;5.722;2023-01-29T09:36:12;100224.84;;;20.10;30.78
34197;BME280;36594;45.192;5.722;2023-01-29T09:39:00;100226.41;;;20.09;30.79
34197;BME280;36594;45.192;5.722;2023-01-29T09:44:53;100239.54;;;20.09;30.77
34197;BME280;36594;45.192;5.722;2023-01-29T09:47:40;100240.44;;;20.06;30.81
34197;BME280;36594;45.192;5.722;2023-01-29T09:50:39;100236.81;;;20.09;30.79
34197;BME280;36594;45.192;5.722;2023-01-29T09:53:45;100245.50;;;20.09;30.82
34197;BME280;36594;45.192;5.722;2023-01-29T09:56:36;100257.66;;;20.06;30.84
34197;BME280;36594;45.192;5.722;2023-01-29T09:59:26;100259.23;;;20.05;30.85
34197;BME280;36594;45.192;5.722;2023-01-29T10:02:39;100249.47;;;20.06;30.83
34197;BME280;36594;45.192;5.722;2023-01-29T10:08:46;100246.25;;;19.96;30.88
34197;BME280;36594;45.192;5.722;2023-01-29T10:11:43;100262.47;;;20.04;30.91
34197;BME280;36594;45.192;5.722;2023-01-29T10:21:46;100259.49;;;19.99;30.94
34197;BME280;36594;45.192;5.722;2023-01-29T10:24:48;100263.45;;;19.96;30.99
34197;BME280;36594;45.192;5.722;2023-01-29T10:27:38;100263.13;;;19.95;31.02
34197;BME280;36594;45.192;5.722;2023-01-29T10:30:37;100261.24;;;19.96;31.01
34197;BME280;36594;45.192;5.722;2023-01-29T10:33:32;100257.28;;;19.98;30.99
34197;BME280;36594;45.192;5.722;2023-01-29T10:36:26;100256.43;;;19.98;31.00
34197;BME280;36594;45.192;5.722;2023-01-29T10:39:17;100252.98;;;20.00;30.98
34197;BME280;36594;45.192;5.722;2023-01-29T10:42:30;100243.98;;;19.99;30.97
34197;BME280;36594;45.192;5.722;2023-01-29T10:45:25;100249.22;;;20.01;30.96
34197;BME280;36594;45.192;5.722;2023-01-29T10:48:39;100234.95;;;19.99;30.98
34197;BME280;36594;45.192;5.722;2023-01-29T10:54:31;100232.22;;;19.99;31.00
34197;BME280;36594;45.192;5.722;2023-01-29T10:57:34;100230.65;;;20.00;30.94
34197;BME280;36594;45.192;5.722;2023-01-29T11:00:19;100232.53;;;20.00;30.93
34197;BME280;36594;45.192;5.722;2023-01-29T11:03:20;100229.92;;;20.03;30.94
34197;BME280;36594;45.192;5.722;2023-01-29T11:06:34;100230.26;;;20.04;30.95
34197;BME280;36594;45.192;5.722;2023-01-29T11:10:27;100231.11;;;20.04;30.94
34197;BME280;36594;45.192;5.722;2023-01-29T11:12:26;100224.68;;;20.01;30.95
34197;BME280;36594;45.192;5.722;2023-01-29T11:15:25;100227.02;;;20.04;30.96
34197;BME280;36594;45.192;5.722;2023-01-29T11:18:14;100221.56;;;20.04;30.95
34197;BME280;36594;45.192;5.722;2023-01-29T11:21:04;100216.50;;;20.01;30.94
34197;BME280;36594;45.192;5.722;2023-01-29T11:24:13;100219.35;;;20.04;30.96
34197;BME280;36594;45.192;5.722;2023-01-29T11:27:13;100218.62;;;20.06;30.93
34197;BME280;36594;45.192;5.722;2023-01-29T11:30:03;100225.14;;;20.05;30.93
34197;BME280;36594;45.192;5.722;2023-01-29T11:36:00;100223.56;;;20.06;30.95
34197;BME280;36594;45.192;5.722;2023-01-29T11:42:03;100219.14;;;20.05;30.96
34197;BME280;36594;45.192;5.722;2023-01-29T11:44:53;100219.02;;;20.03;31.00
34197;BME280;36594;45.192;5.722;2023-01-29T11:47:41;100219.14;;;20.05;30.93
34197;BME280;36594;45.192;5.722;2023-01-29T11:50:31;100219.14;;;20.05;30.94
34197;BME280;36594;45.192;5.722;2023-01-29T11:53:33;100220.84;;;20.06;30.94
34197;BME280;36594;45.192;5.722;2023-01-29T11:56:39;100228.62;;;20.09;30.92
34197;BME280;36594;45.192;5.722;2023-01-29T11:59:40;100222.84;;;20.08;30.91
34197;BME280;36594;45.192;5.722;2023-01-29T12:02:35;100217.98;;;20.04;30.94
34197;BME280;36594;45.192;5.722;2023-01-29T12:05:25;100214.74;;;20.04;30.97
34197;BME280;36594;45.192;5.722;2023-01-29T12:08:16;100215.47;;;20.02;30.98
34197;BME280;36594;45.192;5.722;2023-01-29T12:11:32;100215.05;;;20.05;30.95
34197;BME280;36594;45.192;5.722;2023-01-29T12:14:26;100210.66;;;20.04;30.96
34197;BME280;36594;45.192;5.722;2023-01-29T12:17:21;100206.23;;;20.03;30.98
34197;BME280;36594;45.192;5.722;2023-01-29T12:20:21;100210.66;;;20.04;30.96
34197;BME280;36594;45.192;5.722;2023-01-29T12:23:40;100211.59;;;20.07;30.94
34197;BME280;36594;45.192;5.722;2023-01-29T12:26:34;100201.50;;;20.01;30.95
34197;BME280;36594;45.192;5.722;2023-01-29T12:29:51;100202.11;;;19.96;31.00
34197;BME280;36594;45.192;5.722;2023-01-29T12:35:38;100205.59;;;20.01;31.01
34197;BME280;36594;45.192;5.722;2023-01-29T12:38:27;100203.50;;;20.03;31.05
34197;BME280;36594;45.192;5.722;2023-01-29T12:44:35;100202.77;;;20.05;30.97
34197;BME280;36594;45.192;5.722;2023-01-29T12:47:46;100204.48;;;20.06;30.97
34197;BME280;36594;45.192;5.722;2023-01-29T12:50:37;100207.59;;;20.03;30.97
34197;BME280;36594;45.192;5.722;2023-01-29T12:53:38;100203.72;;;20.02;31.00
34197;BME280;36594;45.192;5.722;2023-01-29T12:56:28;100207.50;;;20.07;30.95
34197;BME280;36594;45.192;5.722;2023-01-29T12:59:19;100202.90;;;20.08;30.95
34197;BME280;36594;45.192;5.722;2023-01-29T13:02:38;100198.17;;;20.06;30.96
34197;BME280;36594;45.192;5.722;2023-01-29T13:08:47;100187.14;;;20.03;30.99
34197;BME280;36594;45.192;5.722;2023-01-29T13:11:54;100183.27;;;20.02;31.04
34197;BME280;36594;45.192;5.722;2023-01-29T13:14:48;100172.35;;;20.02;30.97
34197;BME280;36594;45.192;5.722;2023-01-29T13:17:42;100172.53;;;20.00;31.00
34197;BME280;36594;45.192;5.722;2023-01-29T13:20:32;100167.87;;;20.05;30.96
34197;BME280;36594;45.192;5.722;2023-01-29T13:23:35;100158.84;;;20.04;30.94
34197;BME280;36594;45.192;5.722;2023-01-29T13:26:23;100155.78;;;20.03;30.97
34197;BME280;36594;45.192;5.722;2023-01-29T13:29:32;100150.66;;;20.04;30.99
34197;BME280;36594;45.192;5.722;2023-01-29T13:32:33;100149.59;;;20.05;30.95
34197;BME280;36594;45.192;5.722;2023-01-29T13:35:17;100149.59;;;20.05;30.97
34197;BME280;36594;45.192;5.722;2023-01-29T13:38:22;100143.59;;;19.99;30.95
34197;BME280;36594;45.192;5.722;2023-01-29T13:41:06;100147.94;;;20.04;30.96
34197;BME280;36594;45.192;5.722;2023-01-29T13:43:55;100144.14;;;20.05;30.94
34197;BME280;36594;45.192;5.722;2023-01-29T13:46:55;100144.27;;;20.08;30.93
34197;BME280;36594;45.192;5.722;2023-01-29T13:49:43;100139.66;;;20.08;30.92
34197;BME280;36594;45.192;5.722;2023-01-29T13:52:53;100134.93;;;20.06;30.92
34197;BME280;36594;45.192;5.722;2023-01-29T13:55:42;100135.96;;;20.05;30.92
34197;BME280;36594;45.192;5.722;2023-01-29T14:04:36;100133.97;;;20.03;30.95
34197;BME280;36594;45.192;5.722;2023-01-29T14:10:36;100131.57;;;20.04;30.97
34197;BME280;36594;45.192;5.722;2023-01-29T14:13:32;100127.66;;;20.03;30.99
34197;BME280;36594;45.192;5.722;2023-01-29T14:19:15;100120.33;;;20.03;30.95
34197;BME280;36594;45.192;5.722;2023-01-29T14:22:02;100122.33;;;20.05;30.97
34197;BME280;36594;45.192;5.722;2023-01-29T14:24:53;100122.88;;;20.05;30.95
34197;BME280;36594;45.192;5.722;2023-01-29T14:27:47;100118.96;;;20.03;30.96
34197;BME280;36594;45.192;5.722;2023-01-29T14:30:36;100119.30;;;20.04;30.93
34197;BME280;36594;45.192;5.722;2023-01-29T14:33:37;100117.59;;;20.03;30.93
34197;BME280;36594;45.192;5.722;2023-01-29T14:36:26;100121.08;;;20.08;30.90
34197;BME280;36594;45.192;5.722;2023-01-29T14:39:35;100116.23;;;20.03;30.92
34197;BME280;36594;45.192;5.722;2023-01-29T14:42:26;100123.81;;;20.08;30.92
34197;BME280;36594;45.192;5.722;2023-01-29T14:48:44;100119.08;;;20.06;30.92
34197;BME280;36594;45.192;5.722;2023-01-29T14:51:33;100122.02;;;20.04;30.93
34197;BME280;36594;45.192;5.722;2023-01-29T14:54:25;100120.20;;;20.00;30.96
34197;BME280;36594;45.192;5.722;2023-01-29T14:57:17;100122.75;;;20.02;30.95
34197;BME280;36594;45.192;5.722;2023-01-29T15:00:16;100117.09;;;20.04;30.93
34197;BME280;36594;45.192;5.722;2023-01-29T15:03:11;100117.20;;;20.06;30.94
34197;BME280;36594;45.192;5.722;2023-01-29T15:05:56;100116.97;;;20.01;30.96
34197;BME280;36594;45.192;5.722;2023-01-29T15:09:01;100118.96;;;20.03;30.97
34197;BME280;36594;45.192;5.722;2023-01-29T15:11:46;100114.63;;;19.98;30.94
34197;BME280;36594;45.192;5.722;2023-01-29T15:14:32;100128.41;;;20.07;30.92
34197;BME280;36594;45.192;5.722;2023-01-29T15:20:36;100124.02;;;20.06;30.90
34197;BME280;36594;45.192;5.722;2023-01-29T15:23:31;100123.50;;;20.07;30.90
34197;BME280;36594;45.192;5.722;2023-01-29T15:26:22;100126.62;;;20.04;30.92
34197;BME280;36594;45.192;5.722;2023-01-29T15:29:20;100126.84;;;20.02;30.93
34197;BME280;36594;45.192;5.722;2023-01-29T15:32:03;100128.84;;;20.04;30.92
34197;BME280;36594;45.192;5.722;2023-01-29T15:34:51;100132.84;;;20.08;30.88
34197;BME280;36594;45.192;5.722;2023-01-29T15:37:40;100131.57;;;20.04;30.89
34197;BME280;36594;45.192;5.722;2023-01-29T15:40:29;100133.45;;;20.04;30.92
34197;BME280;36594;45.192;5.722;2023-01-29T15:43:21;100130.62;;;20.08;30.86
34197;BME280;36594;45.192;5.722;2023-01-29T15:46:31;100127.78;;;20.05;30.85
34197;BME280;36594;45.192;5.722;2023-01-29T15:49:31;100128.11;;;20.06;30.87
34197;BME280;36594;45.192;5.722;2023-01-29T15:52:26;100131.36;;;20.06;30.85
34197;BME280;36594;45.192;5.722;2023-01-29T15:55:15;100125.78;;;20.03;30.87
34197;BME280;36594;45.192;5.722;2023-01-29T15:58:04;100130.09;;;20.02;30.89
34197;BME280;36594;45.192;5.722;2023-01-29T16:00:55;100131.57;;;20.04;30.88
34197;BME280;36594;45.192;5.722;2023-01-29T16:03:48;100129.02;;;20.03;30.85
34197;BME280;36594;45.192;5.722;2023-01-29T16:06:38;100131.57;;;20.04;30.85
34197;BME280;36594;45.192;5.722;2023-01-29T16:09:28;100133.05;;;20.07;30.83
34197;BME280;36594;45.192;5.722;2023-01-29T16:12:17;100137.88;;;20.05;30.83
34197;BME280;36594;45.192;5.722;2023-01-29T16:15:11;100128.11;;;20.06;30.79
34197;BME280;36594;45.192;5.722;2023-01-29T16:17:58;100131.98;;;20.08;30.79
34197;BME280;36594;45.192;5.722;2023-01-29T16:20:52;100127.38;;;20.08;30.76
34197;BME280;36594;45.192;5.722;2023-01-29T16:23:53;100125.38;;;20.06;30.78
34197;BME280;36594;45.192;5.722;2023-01-29T16:26:46;100126.75;;;20.06;30.79
34197;BME280;36594;45.192;5.722;2023-01-29T16:29:35;100122.20;;;20.03;30.81
34197;BME280;36594;45.192;5.722;2023-01-29T16:32:25;100122.42;;;20.01;30.81
34197;BME280;36594;45.192;5.722;2023-01-29T16:35:16;100125.66;;;20.00;30.84
34197;BME280;36594;45.192;5.722;2023-01-29T16:38:16;100129.88;;;20.03;30.80
34197;BME280;36594;45.192;5.722;2023-01-29T16:47:19;100126.09;;;19.97;30.79